createdAt,value
2022-10-26T00:01:21.013Z,13.80
2022-10-26T00:03:47.821Z,13.80
2022-10-26T00:06:20.346Z,13.70
2022-10-26T00:08:48.028Z,13.50
2022-10-26T00:11:15.290Z,13.50
2022-10-26T00:13:42.690Z,13.40
2022-10-26T00:16:13.671Z,13.40
2022-10-26T00:18:40.600Z,13.50
2022-10-26T00:21:08.248Z,13.60
2022-10-26T00:23:35.241Z,13.70
2022-10-26T00:26:02.354Z,13.80
2022-10-26T00:28:29.368Z,13.80
2022-10-26T00:31:00.367Z,13.80
2022-10-26T00:33:27.662Z,13.60
2022-10-26T00:35:54.700Z,13.50
2022-10-26T00:38:21.564Z,13.50
2022-10-26T00:40:48.789Z,13.40
2022-10-26T00:43:37.100Z,13.40
2022-10-26T00:46:08.044Z,13.20
2022-10-26T00:48:38.712Z,13.10
2022-10-26T00:51:32.529Z,13.10
2022-10-26T00:54:02.933Z,13.10
2022-10-26T00:56:31.520Z,13.20
2022-10-26T00:59:03.448Z,13.20
2022-10-26T01:01:33.708Z,13.40
2022-10-26T01:04:01.049Z,13.50
2022-10-26T01:06:30.220Z,13.40
2022-10-26T01:08:56.978Z,13.10
2022-10-26T01:11:24.065Z,13.00
2022-10-26T01:13:53.095Z,13.00
2022-10-26T01:16:38.382Z,13.20
2022-10-26T01:19:19.290Z,13.40
2022-10-26T01:21:49.550Z,13.40
2022-10-26T01:24:19.113Z,13.50
2022-10-26T01:27:10.281Z,13.50
2022-10-26T01:30:14.732Z,13.40
2022-10-26T01:32:47.279Z,13.40
2022-10-26T01:35:32.082Z,13.20
2022-10-26T01:38:08.192Z,13.10
2022-10-26T01:41:11.356Z,13.00
2022-10-26T01:43:43.641Z,13.10
2022-10-26T01:46:11.619Z,13.20
2022-10-26T01:48:41.131Z,13.20
2022-10-26T01:51:09.555Z,13.00
2022-10-26T01:53:41.212Z,12.90
2022-10-26T01:56:19.218Z,12.90
2022-10-26T01:59:26.625Z,12.90
2022-10-26T02:02:02.399Z,13.00
2022-10-26T02:04:34.662Z,13.10
2022-10-26T02:07:29.122Z,13.10
2022-10-26T02:10:18.761Z,13.20
2022-10-26T02:13:21.322Z,13.30
2022-10-26T02:16:15.559Z,13.30
2022-10-26T02:18:55.592Z,13.30
2022-10-26T02:21:31.827Z,13.30
2022-10-26T02:23:59.897Z,13.40
2022-10-26T02:26:29.548Z,13.40
2022-10-26T02:29:02.396Z,13.40
2022-10-26T02:31:30.759Z,13.40
2022-10-26T02:34:02.002Z,13.50
2022-10-26T02:36:32.560Z,13.60
2022-10-26T02:39:00.500Z,13.60
2022-10-26T02:41:29.790Z,13.70
2022-10-26T02:44:21.846Z,13.80
2022-10-26T02:46:49.213Z,13.80
2022-10-26T02:49:16.005Z,13.70
2022-10-26T02:52:28.353Z,13.70
2022-10-26T02:55:04.200Z,13.70
2022-10-26T02:57:41.045Z,13.60
2022-10-26T03:02:37.127Z,13.60
2022-10-26T03:05:09.606Z,13.60
2022-10-26T03:07:36.249Z,13.70
2022-10-26T03:10:03.005Z,13.80
2022-10-26T03:12:29.706Z,13.60
2022-10-26T03:14:56.400Z,13.60
2022-10-26T03:17:23.075Z,13.50
2022-10-26T03:19:49.742Z,13.50
2022-10-26T03:22:16.423Z,13.50
2022-10-26T03:24:43.136Z,13.60
2022-10-26T03:27:09.862Z,13.60
2022-10-26T03:29:36.556Z,13.50
2022-10-26T03:32:03.325Z,13.40
2022-10-26T03:34:29.959Z,13.40
2022-10-26T03:36:56.595Z,13.50
2022-10-26T03:39:23.362Z,13.60
2022-10-26T03:41:50.143Z,13.70
2022-10-26T03:44:16.951Z,13.60
2022-10-26T03:46:43.664Z,13.70
2022-10-26T03:49:10.387Z,13.90
2022-10-26T03:51:37.091Z,13.90
2022-10-26T03:54:05.455Z,13.90
2022-10-26T03:56:32.146Z,14.00
2022-10-26T03:58:58.949Z,13.90
2022-10-26T04:01:25.695Z,13.80
2022-10-26T04:03:52.474Z,13.80
2022-10-26T04:06:19.350Z,13.80
2022-10-26T04:08:46.015Z,13.80
2022-10-26T04:11:12.792Z,13.70
2022-10-26T04:13:39.492Z,13.70
2022-10-26T04:16:06.264Z,13.70
2022-10-26T04:18:33.125Z,13.70
2022-10-26T04:21:03.172Z,13.70
2022-10-26T04:23:29.916Z,13.70
2022-10-26T04:25:56.639Z,13.70
2022-10-26T04:28:23.313Z,13.70
2022-10-26T04:30:50.036Z,13.80
2022-10-26T04:33:16.677Z,13.70
2022-10-26T04:35:43.433Z,13.70
2022-10-26T04:38:10.555Z,13.70
2022-10-26T04:40:37.639Z,13.70
2022-10-26T04:43:04.380Z,13.70
2022-10-26T04:45:31.587Z,13.70
2022-10-26T04:48:10.441Z,13.70
2022-10-26T04:50:38.166Z,13.70
2022-10-26T04:53:08.852Z,13.80
2022-10-26T04:55:36.215Z,13.70
2022-10-26T04:58:03.384Z,13.80
2022-10-26T05:00:32.666Z,13.80
2022-10-26T05:03:04.194Z,13.80
2022-10-26T05:05:31.956Z,13.70
2022-10-26T05:07:58.778Z,13.80
2022-10-26T05:10:26.464Z,13.70
2022-10-26T05:12:54.338Z,13.70
2022-10-26T05:15:21.706Z,13.70
2022-10-26T05:17:54.444Z,13.70
2022-10-26T05:20:21.108Z,13.70
2022-10-26T05:22:53.131Z,13.70
2022-10-26T05:25:19.806Z,13.70
2022-10-26T05:27:46.471Z,13.70
2022-10-26T05:30:13.396Z,13.80
2022-10-26T05:32:40.153Z,13.80
2022-10-26T05:35:07.097Z,13.80
2022-10-26T05:37:33.777Z,13.80
2022-10-26T05:40:00.490Z,13.80
2022-10-26T05:42:27.126Z,13.90
2022-10-26T05:44:53.799Z,13.90
2022-10-26T05:47:20.477Z,13.90
2022-10-26T05:49:47.955Z,13.90
2022-10-26T05:52:14.597Z,13.90
2022-10-26T05:54:41.232Z,13.80
2022-10-26T05:57:12.028Z,13.90
2022-10-26T05:59:38.988Z,13.80
2022-10-26T06:02:33.444Z,13.80
2022-10-26T06:05:04.807Z,13.90
2022-10-26T06:07:32.838Z,13.90
2022-10-26T06:09:59.994Z,13.80
2022-10-26T06:12:26.925Z,13.80
2022-10-26T06:14:53.893Z,13.80
2022-10-26T06:17:44.251Z,13.90
2022-10-26T06:20:29.367Z,13.80
2022-10-26T06:23:33.960Z,13.80
2022-10-26T06:26:17.475Z,13.90
2022-10-26T06:28:53.280Z,13.90
2022-10-26T06:31:20.088Z,13.90
2022-10-26T06:33:46.846Z,14.00
2022-10-26T06:36:24.149Z,14.00
2022-10-26T06:39:01.735Z,14.00
2022-10-26T06:41:30.840Z,14.10
2022-10-26T06:43:57.957Z,14.10
2022-10-26T06:46:39.243Z,14.10
2022-10-26T06:49:27.571Z,14.20
2022-10-26T06:52:02.980Z,14.20
2022-10-26T06:54:51.287Z,14.20
2022-10-26T06:57:20.342Z,14.30
2022-10-26T07:00:04.102Z,14.20
2022-10-26T07:02:30.818Z,14.30
2022-10-26T07:04:57.591Z,14.30
2022-10-26T07:07:26.733Z,14.30
2022-10-26T07:09:53.730Z,14.30
2022-10-26T07:12:20.662Z,14.30
2022-10-26T07:14:47.588Z,14.40
2022-10-26T07:17:14.525Z,14.40
2022-10-26T07:19:41.266Z,14.40
2022-10-26T07:22:07.938Z,14.40
2022-10-26T07:24:34.815Z,14.50
2022-10-26T07:27:01.647Z,14.50
2022-10-26T07:29:28.809Z,14.50
2022-10-26T07:31:55.448Z,14.60
2022-10-26T07:34:22.138Z,14.60
2022-10-26T07:36:48.868Z,14.70
2022-10-26T07:39:15.649Z,14.70
2022-10-26T07:41:42.329Z,14.70
2022-10-26T07:44:08.941Z,14.70
2022-10-26T07:46:35.653Z,14.70
2022-10-26T07:49:02.352Z,14.70
2022-10-26T07:51:29.119Z,14.70
2022-10-26T07:53:55.847Z,14.70
2022-10-26T07:56:22.874Z,14.70
2022-10-26T07:58:55.519Z,14.70
2022-10-26T08:01:22.526Z,14.70
2022-10-26T08:03:55.148Z,14.70
2022-10-26T08:06:22.573Z,14.70
2022-10-26T08:08:49.400Z,14.70
2022-10-26T08:11:16.882Z,14.70
2022-10-26T08:13:43.796Z,14.80
2022-10-26T08:16:10.562Z,14.80
2022-10-26T08:18:37.239Z,14.90
2022-10-26T08:21:11.147Z,14.90
2022-10-26T08:23:38.561Z,14.90
2022-10-26T08:26:05.604Z,14.90
2022-10-26T08:28:32.336Z,14.90
2022-10-26T08:30:59.510Z,14.90
2022-10-26T08:33:26.351Z,15.00
2022-10-26T08:36:04.906Z,14.90
2022-10-26T08:38:33.778Z,14.90
2022-10-26T08:41:08.005Z,15.00
2022-10-26T08:43:42.836Z,15.00
2022-10-26T08:46:12.512Z,15.00
2022-10-26T08:48:43.713Z,15.00
2022-10-26T08:51:20.440Z,15.10
2022-10-26T08:54:05.319Z,15.10
2022-10-26T08:56:35.002Z,15.10
2022-10-26T08:59:26.782Z,15.20
2022-10-26T09:01:54.316Z,15.20
2022-10-26T09:04:26.494Z,15.20
2022-10-26T09:07:22.495Z,15.20
2022-10-26T09:10:25.632Z,15.20
2022-10-26T09:13:18.500Z,15.20
2022-10-26T09:16:00.032Z,15.30
2022-10-26T09:21:35.133Z,15.30
2022-10-26T09:24:04.804Z,15.30
2022-10-26T09:26:44.990Z,15.30
2022-10-26T09:29:14.078Z,15.30
2022-10-26T09:31:47.362Z,15.40
2022-10-26T09:34:28.303Z,15.30
2022-10-26T09:36:56.351Z,15.40
2022-10-26T09:39:35.773Z,15.40
2022-10-26T09:42:35.699Z,15.40
2022-10-26T09:45:13.238Z,15.50
2022-10-26T09:47:43.499Z,15.50
2022-10-26T09:50:18.489Z,15.60
2022-10-26T09:52:45.203Z,15.70
2022-10-26T09:55:13.280Z,15.80
2022-10-26T09:57:46.801Z,16.00
2022-10-26T10:00:19.634Z,16.10
2022-10-26T10:02:52.139Z,16.20
2022-10-26T10:05:49.676Z,16.30
2022-10-26T10:08:26.540Z,16.40
2022-10-26T10:11:01.032Z,16.40
2022-10-26T10:13:36.908Z,16.50
2022-10-26T10:16:23.871Z,16.50
2022-10-26T10:19:00.954Z,16.60
2022-10-26T10:21:44.567Z,16.70
2022-10-26T10:24:32.562Z,16.70
2022-10-26T10:27:15.552Z,16.80
2022-10-26T10:29:43.567Z,16.70
2022-10-26T10:32:21.797Z,16.70
2022-10-26T10:34:50.361Z,16.70
2022-10-26T10:37:25.926Z,16.80
2022-10-26T10:39:57.690Z,16.70
2022-10-26T10:42:29.842Z,16.70
2022-10-26T10:44:57.738Z,16.70
2022-10-26T10:47:29.107Z,16.70
2022-10-26T10:50:19.249Z,16.70
2022-10-26T10:52:46.824Z,16.80
2022-10-26T10:55:13.598Z,16.90
2022-10-26T10:58:16.860Z,16.90
2022-10-26T11:00:48.212Z,17.00
2022-10-26T11:03:45.876Z,17.00
2022-10-26T11:06:22.547Z,17.00
2022-10-26T11:09:03.783Z,17.00
2022-10-26T11:11:48.789Z,17.10
2022-10-26T11:14:35.521Z,17.20
2022-10-26T11:17:24.382Z,17.20
2022-10-26T11:20:04.818Z,17.30
2022-10-26T11:22:40.167Z,17.40
2022-10-26T11:25:28.975Z,17.40
2022-10-26T11:28:05.817Z,17.50
2022-10-26T11:30:34.633Z,17.60
2022-10-26T11:33:13.950Z,17.80
2022-10-26T11:35:46.149Z,18.00
2022-10-26T11:38:23.758Z,18.20
2022-10-26T11:41:03.876Z,18.40
2022-10-26T11:43:45.111Z,18.60
2022-10-26T11:46:13.899Z,18.70
2022-10-26T11:49:05.289Z,18.80
2022-10-26T11:51:51.675Z,18.90
2022-10-26T11:54:30.951Z,19.00
2022-10-26T11:56:59.488Z,19.10
2022-10-26T11:59:33.134Z,19.30
2022-10-26T12:02:02.942Z,19.40
2022-10-26T12:04:33.258Z,19.60
2022-10-26T12:07:03.030Z,19.80
2022-10-26T12:09:36.586Z,19.90
2022-10-26T12:12:23.888Z,20.10
2022-10-26T12:14:56.664Z,20.20
2022-10-26T12:17:37.213Z,20.30
2022-10-26T12:20:25.555Z,20.40
2022-10-26T12:22:52.523Z,20.50
2022-10-26T12:25:21.948Z,20.60
2022-10-26T12:27:50.573Z,20.80
2022-10-26T12:30:22.990Z,20.80
2022-10-26T12:32:58.246Z,20.80
2022-10-26T12:35:35.264Z,20.90
2022-10-26T12:38:21.847Z,21.00
2022-10-26T12:40:49.537Z,21.10
2022-10-26T12:43:16.127Z,21.10
2022-10-26T12:45:44.579Z,21.20
2022-10-26T12:48:39.751Z,21.30
2022-10-26T12:51:21.746Z,21.30
2022-10-26T12:53:57.535Z,21.50
2022-10-26T12:56:42.070Z,21.50
2022-10-26T12:59:20.053Z,21.50
2022-10-26T13:02:03.614Z,21.50
2022-10-26T13:04:33.135Z,21.60
2022-10-26T13:06:59.710Z,21.70
2022-10-26T13:09:33.086Z,21.70
2022-10-26T13:12:03.152Z,21.80
2022-10-26T13:14:37.147Z,21.90
2022-10-26T13:17:05.812Z,22.00
2022-10-26T13:19:48.630Z,22.10
2022-10-26T13:22:19.885Z,22.20
2022-10-26T13:24:59.031Z,22.10
2022-10-26T13:27:41.821Z,22.30
2022-10-26T13:30:36.954Z,22.30
2022-10-26T13:33:08.222Z,22.40
2022-10-26T13:35:35.063Z,22.40
2022-10-26T13:38:09.526Z,22.50
2022-10-26T13:40:38.434Z,22.50
2022-10-26T13:43:07.473Z,22.50
2022-10-26T13:45:50.604Z,22.50
2022-10-26T13:48:39.804Z,22.60
2022-10-26T13:51:38.704Z,22.50
2022-10-26T13:54:18.352Z,22.40
2022-10-26T13:56:58.440Z,22.50
2022-10-26T13:59:26.561Z,22.70
2022-10-26T14:02:17.166Z,22.70
2022-10-26T14:05:05.462Z,22.60
2022-10-26T14:07:43.431Z,22.60
2022-10-26T14:10:28.012Z,22.60
2022-10-26T14:12:54.853Z,22.70
2022-10-26T14:15:27.722Z,22.70
2022-10-26T14:17:55.645Z,22.70
2022-10-26T14:20:24.569Z,22.60
2022-10-26T14:22:51.995Z,22.70
2022-10-26T14:25:30.959Z,22.80
2022-10-26T14:28:25.739Z,22.80
2022-10-26T14:30:52.555Z,22.70
2022-10-26T14:33:23.469Z,22.70
2022-10-26T14:35:50.293Z,22.70
2022-10-26T14:38:30.361Z,22.60
2022-10-26T14:40:58.356Z,22.60
2022-10-26T14:43:26.603Z,22.50
2022-10-26T14:45:54.441Z,22.40
2022-10-26T14:48:28.283Z,22.40
2022-10-26T14:51:17.052Z,22.60
2022-10-26T14:53:55.689Z,22.40
2022-10-26T14:56:48.799Z,22.50
2022-10-26T14:59:26.215Z,22.70
2022-10-26T15:02:05.739Z,22.60
2022-10-26T15:04:41.226Z,22.50
2022-10-26T15:07:16.090Z,22.40
2022-10-26T15:09:45.480Z,22.30
2022-10-26T15:12:19.969Z,22.20
2022-10-26T15:14:47.369Z,22.10
2022-10-26T15:17:27.632Z,21.90
2022-10-26T15:19:55.515Z,21.80
2022-10-26T15:22:31.025Z,21.70
2022-10-26T15:25:03.293Z,21.70
2022-10-26T15:27:30.449Z,21.70
2022-10-26T15:30:20.059Z,21.60
2022-10-26T15:32:47.683Z,21.50
2022-10-26T15:35:28.128Z,21.40
2022-10-26T15:37:56.246Z,21.30
2022-10-26T15:42:59.865Z,21.10
2022-10-26T15:45:29.990Z,20.80
2022-10-26T15:47:59.125Z,20.70
2022-10-26T15:50:29.224Z,20.50
2022-10-26T15:53:06.519Z,20.60
2022-10-26T15:55:33.214Z,20.50
2022-10-26T15:57:59.918Z,20.20
2022-10-26T16:00:26.662Z,20.10
2022-10-26T16:02:53.571Z,20.00
2022-10-26T16:05:20.383Z,19.80
2022-10-26T16:07:48.717Z,19.70
2022-10-26T16:10:21.428Z,19.70
2022-10-26T16:12:49.921Z,19.50
2022-10-26T16:15:19.168Z,19.40
2022-10-26T16:17:46.521Z,19.30
2022-10-26T16:20:19.483Z,19.10
2022-10-26T16:22:48.341Z,18.90
2022-10-26T16:25:22.876Z,18.80
2022-10-26T16:27:50.272Z,18.70
2022-10-26T16:30:18.172Z,18.70
2022-10-26T16:32:44.985Z,18.40
2022-10-26T16:35:12.734Z,18.30
2022-10-26T16:37:40.055Z,18.40
2022-10-26T16:40:08.903Z,18.40
2022-10-26T16:42:35.773Z,18.30
2022-10-26T16:45:03.056Z,18.20
2022-10-26T16:47:35.527Z,18.10
2022-10-26T16:50:03.148Z,17.90
2022-10-26T16:52:29.981Z,17.90
2022-10-26T16:54:56.924Z,18.00
2022-10-26T16:57:23.664Z,18.10
2022-10-26T16:59:50.311Z,18.10
2022-10-26T17:02:17.156Z,17.70
2022-10-26T17:04:44.026Z,17.50
2022-10-26T17:07:11.325Z,17.50
2022-10-26T17:09:38.307Z,17.70
2022-10-26T17:12:05.704Z,17.70
2022-10-26T17:14:32.705Z,17.60
2022-10-26T17:16:59.579Z,17.50
2022-10-26T17:19:26.259Z,17.50
2022-10-26T17:21:52.926Z,17.50
2022-10-26T17:24:19.946Z,17.60
2022-10-26T17:26:46.803Z,17.60
2022-10-26T17:29:13.996Z,17.60
2022-10-26T17:31:41.043Z,17.70
2022-10-26T17:34:07.801Z,17.60
2022-10-26T17:36:34.736Z,17.50
2022-10-26T17:39:01.488Z,17.50
2022-10-26T17:41:28.828Z,17.30
2022-10-26T17:43:55.526Z,17.30
2022-10-26T17:46:25.002Z,17.30
2022-10-26T17:49:00.210Z,17.20
2022-10-26T17:51:29.227Z,17.20
2022-10-26T17:53:56.970Z,17.20
2022-10-26T17:56:27.247Z,17.00
2022-10-26T17:58:56.025Z,17.10
2022-10-26T18:01:23.154Z,17.00
2022-10-26T18:03:50.372Z,17.00
2022-10-26T18:06:19.789Z,16.90
2022-10-26T18:08:47.001Z,16.90
2022-10-26T18:11:26.491Z,16.80
2022-10-26T18:13:55.273Z,16.70
2022-10-26T18:16:22.841Z,16.80
2022-10-26T18:18:54.911Z,16.70
2022-10-26T18:21:21.684Z,16.60
2022-10-26T18:23:48.302Z,16.60
2022-10-26T18:26:20.933Z,16.60
2022-10-26T18:28:47.891Z,16.30
2022-10-26T18:31:20.160Z,16.20
2022-10-26T18:33:47.158Z,16.30
2022-10-26T18:36:16.088Z,16.10
2022-10-26T18:38:43.510Z,16.20
2022-10-26T18:41:12.235Z,16.10
2022-10-26T18:43:43.606Z,16.20
2022-10-26T18:46:15.167Z,16.30
2022-10-26T18:48:44.457Z,16.20
2022-10-26T18:51:13.622Z,16.20
2022-10-26T18:53:42.305Z,16.10
2022-10-26T18:56:15.084Z,16.20
2022-10-26T18:58:43.685Z,16.40
2022-10-26T19:01:22.570Z,16.40
2022-10-26T19:03:54.267Z,16.30
2022-10-26T19:06:27.444Z,16.30
2022-10-26T19:08:55.203Z,16.20
2022-10-26T19:11:23.692Z,16.00
2022-10-26T19:13:52.753Z,15.90
2022-10-26T19:16:43.998Z,15.90
2022-10-26T19:19:11.127Z,15.80
2022-10-26T19:21:38.052Z,15.70
2022-10-26T19:24:05.141Z,15.80
2022-10-26T19:26:36.927Z,15.80
2022-10-26T19:29:06.779Z,15.80
2022-10-26T19:31:35.619Z,15.90
2022-10-26T19:34:03.338Z,15.80
2022-10-26T19:36:30.453Z,15.90
2022-10-26T19:38:57.298Z,15.70
2022-10-26T19:41:26.649Z,15.40
2022-10-26T19:43:54.360Z,15.30
2022-10-26T19:46:23.537Z,15.40
2022-10-26T19:48:55.290Z,15.50
2022-10-26T19:51:23.046Z,15.30
2022-10-26T19:53:49.791Z,15.40
2022-10-26T19:56:16.889Z,15.30
2022-10-26T19:58:44.734Z,15.20
2022-10-26T20:01:14.195Z,15.10
2022-10-26T20:03:41.385Z,14.90
2022-10-26T20:06:12.883Z,14.90
2022-10-26T20:08:49.390Z,15.00
2022-10-26T20:11:17.851Z,15.10
2022-10-26T20:13:45.916Z,15.10
2022-10-26T20:16:13.639Z,15.10
2022-10-26T20:18:44.055Z,14.70
2022-10-26T20:21:15.442Z,14.90
2022-10-26T20:23:42.669Z,15.10
2022-10-26T20:26:10.955Z,15.10
2022-10-26T20:28:39.362Z,14.90
2022-10-26T20:31:06.093Z,14.90
2022-10-26T20:33:32.813Z,14.70
2022-10-26T20:36:00.203Z,14.80
2022-10-26T20:38:27.436Z,14.60
2022-10-26T20:40:59.069Z,14.70
2022-10-26T20:43:27.546Z,14.60
2022-10-26T20:45:56.110Z,14.60
2022-10-26T20:48:23.371Z,14.60
2022-10-26T20:51:31.376Z,14.70
2022-10-26T20:54:11.130Z,14.70
2022-10-26T20:56:43.720Z,14.60
2022-10-26T20:59:26.119Z,14.50
2022-10-26T21:01:52.869Z,14.60
2022-10-26T21:04:19.635Z,14.70
2022-10-26T21:06:46.322Z,14.70
2022-10-26T21:09:13.022Z,14.60
2022-10-26T21:11:39.792Z,14.30
2022-10-26T21:14:06.593Z,14.10
2022-10-26T21:16:33.541Z,14.00
2022-10-26T21:19:00.339Z,13.90
2022-10-26T21:21:27.137Z,13.90
2022-10-26T21:23:54.239Z,13.90
2022-10-26T21:26:21.019Z,14.10
2022-10-26T21:28:48.470Z,14.20
2022-10-26T21:31:17.879Z,14.20
2022-10-26T21:33:46.190Z,14.00
2022-10-26T21:36:14.842Z,14.00
2022-10-26T21:38:43.536Z,14.00
2022-10-26T21:41:15.552Z,13.80
2022-10-26T21:43:45.981Z,13.70
2022-10-26T21:46:13.933Z,13.60
2022-10-26T21:48:43.825Z,13.50
2022-10-26T21:51:16.745Z,13.30
2022-10-26T21:53:44.168Z,13.20
2022-10-26T21:56:19.677Z,13.30
2022-10-26T21:58:46.863Z,13.30
2022-10-26T22:01:17.762Z,13.40
2022-10-26T22:03:46.646Z,13.50
2022-10-26T22:06:15.681Z,13.60
2022-10-26T22:08:42.814Z,13.70
2022-10-26T22:11:15.860Z,13.50
2022-10-26T22:13:44.119Z,13.40
2022-10-26T22:16:16.413Z,13.50
2022-10-26T22:18:45.343Z,13.40
2022-10-26T22:21:13.713Z,13.40
2022-10-26T22:23:42.146Z,13.30
2022-10-26T22:26:13.077Z,13.40
2022-10-26T22:28:42.904Z,13.40
2022-10-26T22:31:16.624Z,13.40
2022-10-26T22:33:43.903Z,13.40
2022-10-26T22:36:13.108Z,13.30
2022-10-26T22:38:39.973Z,13.30
2022-10-26T22:41:07.405Z,13.40
2022-10-26T22:43:34.044Z,13.50
2022-10-26T22:46:10.892Z,13.30
2022-10-26T22:48:38.032Z,13.10
2022-10-26T22:51:06.767Z,13.20
2022-10-26T22:53:33.460Z,13.30
2022-10-26T22:56:01.218Z,13.30
2022-10-26T22:58:27.953Z,13.40
2022-10-26T23:01:05.698Z,13.30
2022-10-26T23:03:33.029Z,13.20
2022-10-26T23:05:59.901Z,13.10
2022-10-26T23:08:27.090Z,13.00
2022-10-26T23:10:54.025Z,12.90
2022-10-26T23:13:20.749Z,12.90
2022-10-26T23:15:47.441Z,13.00
2022-10-26T23:18:14.193Z,12.90
2022-10-26T23:20:40.923Z,12.80
2022-10-26T23:23:07.589Z,12.90
2022-10-26T23:25:34.326Z,12.80
2022-10-26T23:28:01.029Z,12.90
2022-10-26T23:30:27.745Z,13.00
2022-10-26T23:32:55.596Z,13.00
2022-10-26T23:35:23.075Z,13.00
2022-10-26T23:37:49.747Z,12.90
2022-10-26T23:40:16.570Z,12.70
2022-10-26T23:42:43.318Z,12.60
2022-10-26T23:45:10.478Z,12.70
2022-10-26T23:47:37.167Z,12.70
2022-10-26T23:50:04.037Z,12.70
2022-10-26T23:52:30.718Z,12.50
2022-10-26T23:54:57.405Z,12.40
2022-10-26T23:57:24.171Z,12.60
2022-10-26T23:59:51.014Z,12.70
